Time,TemperatureF,DewpointF,PressureIn,WindDirection,WindDirectionDegrees,WindSpeedMPH,WindSpeedGustMPH,Humidity,HourlyPrecipIn,Conditions,Clouds,dailyrainin,SoftwareType,DateUTC
2017-11-21 00:00:00,34.7,26.9,30.03,SW,236,1.0,5.0,73,0.00,,,0.00,Wunderground v.1.15,2017-11-21 05:00:00,
2017-11-21 00:12:00,34.1,26.7,30.03,SSE,155,1.0,5.0,74,0.00,,,0.00,Wunderground v.1.15,2017-11-21 05:12:00,
2017-11-21 00:24:00,33.9,26.5,30.03,South,173,1.0,5.0,74,0.00,,,0.00,Wunderground v.1.15,2017-11-21 05:24:00,
2017-11-21 00:30:00,33.6,26.2,30.03,SSE,167,0.0,5.0,74,0.00,,,0.00,Wunderground v.1.15,2017-11-21 05:30:00,
2017-11-21 00:36:00,33.3,26.2,30.02,SE,132,0.0,5.0,75,0.00,,,0.00,Wunderground v.1.15,2017-11-21 05:36:00,
2017-11-21 00:48:00,32.9,26.2,30.02,SE,129,0.0,5.0,76,0.00,,,0.00,Wunderground v.1.15,2017-11-21 05:48:00,
2017-11-21 00:54:00,32.5,25.8,30.02,WSW,256,0.0,5.0,76,0.00,,,0.00,Wunderground v.1.15,2017-11-21 05:54:00,
2017-11-21 01:00:00,32.4,26.3,30.02,SE,127,1.0,5.0,78,0.00,,,0.00,Wunderground v.1.15,2017-11-21 06:00:00,
2017-11-21 01:12:00,32.4,26.0,30.01,South,184,0.0,5.0,77,0.00,,,0.00,Wunderground v.1.15,2017-11-21 06:12:00,
2017-11-21 01:18:00,32.4,26.0,30.01,SSE,166,0.0,5.0,77,0.00,,,0.00,Wunderground v.1.15,2017-11-21 06:18:00,
2017-11-21 01:24:00,32.5,26.1,30.01,SSE,152,0.0,5.0,77,0.00,,,0.00,Wunderground v.1.15,2017-11-21 06:24:00,
2017-11-21 01:42:00,32.9,26.5,30.01,SW,226,1.0,5.0,77,0.00,,,0.00,Wunderground v.1.15,2017-11-21 06:42:00,
2017-11-21 01:54:00,33.8,26.7,30.00,North,4,1.0,5.0,75,0.00,,,0.00,Wunderground v.1.15,2017-11-21 06:54:00,
2017-11-21 02:24:00,35.5,27.0,30.00,WSW,258,1.0,5.0,71,0.00,,,0.00,Wunderground v.1.15,2017-11-21 07:24:00,
2017-11-21 02:48:00,38.3,27.2,30.00,NW,314,3.0,5.0,64,0.00,,,0.00,Wunderground v.1.15,2017-11-21 07:48:00,
2017-11-21 02:54:00,38.7,27.2,30.00,West,259,3.0,5.0,63,0.00,,,0.00,Wunderground v.1.15,2017-11-21 07:54:00,
2017-11-21 03:02:00,39.1,27.6,30.01,SW,222,3.0,7.0,63,0.00,,,0.00,Wunderground v.1.15,2017-11-21 08:02:00,
2017-11-21 03:14:00,38.9,27.4,30.01,WSW,253,2.0,5.0,63,0.00,,,0.00,Wunderground v.1.15,2017-11-21 08:14:00,
2017-11-21 03:20:00,38.6,27.1,30.01,ENE,58,2.0,2.0,63,0.00,,,0.00,Wunderground v.1.15,2017-11-21 08:20:00,
2017-11-21 03:26:00,38.2,27.1,30.00,WNW,291,1.0,5.0,64,0.00,,,0.00,Wunderground v.1.15,2017-11-21 08:26:00,
2017-11-21 03:32:00,38.0,26.9,30.00,SSW,204,2.0,5.0,64,0.00,,,0.00,Wunderground v.1.15,2017-11-21 08:32:00,
2017-11-21 03:44:00,38.0,26.9,30.00,West,278,2.0,8.0,64,0.00,,,0.00,Wunderground v.1.15,2017-11-21 08:44:00,
2017-11-21 03:50:00,38.3,27.2,30.00,West,267,3.0,3.0,64,0.00,,,0.00,Wunderground v.1.15,2017-11-21 08:50:00,
2017-11-21 03:56:00,38.3,27.2,30.00,WSW,239,2.0,5.0,64,0.00,,,0.00,Wunderground v.1.15,2017-11-21 08:56:00,
2017-11-21 04:02:00,38.3,27.2,30.00,South,184,2.0,5.0,64,0.00,,,0.00,Wunderground v.1.15,2017-11-21 09:02:00,
2017-11-21 04:08:00,38.7,27.2,29.99,West,260,3.0,6.0,63,0.00,,,0.00,Wunderground v.1.15,2017-11-21 09:08:00,
2017-11-21 04:14:00,39.1,27.6,30.00,NW,309,3.0,5.0,63,0.00,,,0.00,Wunderground v.1.15,2017-11-21 09:14:00,
2017-11-21 04:26:00,39.6,27.2,30.00,WSW,248,3.0,6.0,61,0.00,,,0.00,Wunderground v.1.15,2017-11-21 09:26:00,
2017-11-21 04:32:00,39.8,27.4,29.99,West,262,4.0,6.0,61,0.00,,,0.00,Wunderground v.1.15,2017-11-21 09:32:00,
2017-11-21 04:38:00,39.9,27.5,29.98,SW,228,4.0,11.0,61,0.00,,,0.00,Wunderground v.1.15,2017-11-21 09:38:00,
2017-11-21 04:44:00,39.9,27.5,29.98,SW,233,4.0,6.0,61,0.00,,,0.00,Wunderground v.1.15,2017-11-21 09:44:00,
2017-11-21 04:56:00,39.3,27.4,29.98,West,274,4.0,5.0,62,0.00,,,0.00,Wunderground v.1.15,2017-11-21 09:56:00,
2017-11-21 05:02:00,39.3,27.4,29.99,SSW,195,4.0,5.0,62,0.00,,,0.00,Wunderground v.1.15,2017-11-21 10:02:00,
2017-11-21 05:08:00,39.3,27.4,29.98,SSE,156,5.0,9.0,62,0.00,,,0.00,Wunderground v.1.15,2017-11-21 10:08:00,
2017-11-21 05:14:00,39.3,27.4,29.99,WNW,297,4.0,5.0,62,0.00,,,0.00,Wunderground v.1.15,2017-11-21 10:14:00,
2017-11-21 05:20:00,39.1,27.6,29.99,NW,314,4.0,4.0,63,0.00,,,0.00,Wunderground v.1.15,2017-11-21 10:20:00,
2017-11-21 05:26:00,38.7,27.6,29.99,SSW,212,3.0,5.0,64,0.00,,,0.00,Wunderground v.1.15,2017-11-21 10:26:00,
2017-11-21 05:32:00,38.7,27.6,29.98,SSW,194,4.0,9.0,64,0.00,,,0.00,Wunderground v.1.15,2017-11-21 10:32:00,
2017-11-21 05:44:00,38.8,27.7,29.99,WNW,289,4.0,5.0,64,0.00,,,0.00,Wunderground v.1.15,2017-11-21 10:44:00,
2017-11-21 05:50:00,38.8,27.3,29.98,South,188,5.0,5.0,63,0.00,,,0.00,Wunderground v.1.15,2017-11-21 10:50:00,
2017-11-21 05:56:00,39.0,27.5,29.98,WSW,240,5.0,7.0,63,0.00,,,0.00,Wunderground v.1.15,2017-11-21 10:56:00,
2017-11-21 06:02:00,39.2,27.7,29.98,West,268,5.0,7.0,63,0.00,,,0.00,Wunderground v.1.15,2017-11-21 11:02:00,
2017-11-21 06:14:00,39.7,27.7,29.98,WSW,255,5.0,18.0,62,0.00,,,0.00,Wunderground v.1.15,2017-11-21 11:14:00,
2017-11-21 06:20:00,39.8,27.4,29.98,South,188,6.0,19.0,61,0.00,,,0.00,Wunderground v.1.15,2017-11-21 11:20:00,
2017-11-21 06:32:00,40.1,28.1,29.98,SSW,210,6.0,8.0,62,0.00,,,0.00,Wunderground v.1.15,2017-11-21 11:32:00,
2017-11-21 06:44:00,39.9,27.9,29.97,West,264,4.0,5.0,62,0.00,,,0.00,Wunderground v.1.15,2017-11-21 11:44:00,
2017-11-21 06:46:00,39.9,28.3,29.98,South,184,4.0,5.0,63,0.00,,,0.00,Wunderground v.1.15,2017-11-21 11:46:00,
2017-11-21 06:52:00,39.9,28.3,29.97,SSE,156,4.0,5.0,63,0.00,,,0.00,Wunderground v.1.15,2017-11-21 11:52:00,
2017-11-21 06:58:00,39.9,28.3,29.97,SSW,210,5.0,5.0,63,0.00,,,0.00,Wunderground v.1.15,2017-11-21 11:58:00,
2017-11-21 07:04:00,39.9,28.3,29.97,South,169,5.0,11.0,63,0.00,,,0.00,Wunderground v.1.15,2017-11-21 12:04:00,
2017-11-21 07:10:00,40.2,28.2,29.97,SE,132,6.0,6.0,62,0.00,,,0.00,Wunderground v.1.15,2017-11-21 12:10:00,
2017-11-21 07:16:00,40.1,28.5,29.97,SW,226,5.0,6.0,63,0.00,,,0.00,Wunderground v.1.15,2017-11-21 12:16:00,
2017-11-21 07:22:00,39.9,28.3,29.97,WSW,238,4.0,6.0,63,0.00,,,0.00,Wunderground v.1.15,2017-11-21 12:22:00,
2017-11-21 07:28:00,39.8,28.2,29.97,WNW,289,4.0,6.0,63,0.00,,,0.00,Wunderground v.1.15,2017-11-21 12:28:00,
2017-11-21 07:34:00,39.9,28.7,29.97,WNW,284,5.0,7.0,64,0.00,,,0.00,Wunderground v.1.15,2017-11-21 12:34:00,
2017-11-21 07:40:00,39.9,28.7,29.97,NW,312,5.0,6.0,64,0.00,,,0.00,Wunderground v.1.15,2017-11-21 12:40:00,
2017-11-21 07:52:00,40.2,28.6,29.97,NW,314,6.0,9.0,63,0.00,,,0.00,Wunderground v.1.15,2017-11-21 12:52:00,
2017-11-21 08:04:00,40.1,28.9,29.97,SSE,148,5.0,15.0,64,0.00,,,0.00,Wunderground v.1.15,2017-11-21 13:04:00,
2017-11-21 08:10:00,40.1,28.9,29.97,SW,235,5.0,5.0,64,0.00,,,0.00,Wunderground v.1.15,2017-11-21 13:10:00,
2017-11-21 08:16:00,40.1,28.9,29.97,SSW,203,5.0,15.0,64,0.00,,,0.00,Wunderground v.1.15,2017-11-21 13:16:00,
2017-11-21 08:22:00,40.1,28.9,29.98,SSW,195,5.0,15.0,64,0.00,,,0.00,Wunderground v.1.15,2017-11-21 13:22:00,
2017-11-21 08:28:00,40.2,29.4,29.98,SSW,207,5.0,15.0,65,0.00,,,0.00,Wunderground v.1.15,2017-11-21 13:28:00,
2017-11-21 08:34:00,40.6,29.4,29.98,SW,219,5.0,15.0,64,0.00,,,0.00,Wunderground v.1.15,2017-11-21 13:34:00,
2017-11-21 08:40:00,41.1,29.8,29.97,SW,222,6.0,15.0,64,0.00,,,0.00,Wunderground v.1.15,2017-11-21 13:40:00,
2017-11-21 08:52:00,41.8,30.1,29.98,WNW,291,6.0,15.0,63,0.00,,,0.00,Wunderground v.1.15,2017-11-21 13:52:00,
2017-11-21 09:04:00,42.4,30.3,29.97,SSW,209,6.0,8.0,62,0.00,,,0.00,Wunderground v.1.15,2017-11-21 14:04:00,
2017-11-21 09:10:00,42.7,30.6,29.97,WNW,289,6.0,15.0,62,0.00,,,0.00,Wunderground v.1.15,2017-11-21 14:10:00,
2017-11-21 09:22:00,43.1,31.0,29.97,SSW,204,5.0,15.0,62,0.00,,,0.00,Wunderground v.1.15,2017-11-21 14:22:00,
2017-11-21 09:28:00,43.2,31.1,29.97,SW,233,5.0,15.0,62,0.00,,,0.00,Wunderground v.1.15,2017-11-21 14:28:00,
2017-11-21 09:34:00,43.4,30.8,29.97,SW,214,6.0,15.0,61,0.00,,,0.00,Wunderground v.1.15,2017-11-21 14:34:00,
2017-11-21 09:40:00,43.7,31.5,29.97,South,169,5.0,5.0,62,0.00,,,0.00,Wunderground v.1.15,2017-11-21 14:40:00,
2017-11-21 09:46:00,44.0,31.4,29.97,SSW,208,5.0,17.0,61,0.00,,,0.00,Wunderground v.1.15,2017-11-21 14:46:00,
2017-11-21 09:52:00,44.1,31.5,29.97,NW,315,6.0,15.0,61,0.00,,,0.00,Wunderground v.1.15,2017-11-21 14:52:00,
2017-11-21 09:58:00,44.2,32.0,29.97,SW,217,5.0,15.0,62,0.00,,,0.00,Wunderground v.1.15,2017-11-21 14:58:00,
2017-11-21 10:04:00,44.3,31.7,29.97,West,279,6.0,15.0,61,0.00,,,0.00,Wunderground v.1.15,2017-11-21 15:04:00,
2017-11-21 10:10:00,44.6,32.0,29.96,SSW,200,7.0,15.0,61,0.00,,,0.00,Wunderground v.1.15,2017-11-21 15:10:00,
2017-11-21 10:16:00,44.9,31.4,29.97,WSW,242,7.0,15.0,59,0.00,,,0.00,Wunderground v.1.15,2017-11-21 15:16:00,
2017-11-21 10:28:00,45.7,32.2,29.97,SW,228,6.0,15.0,59,0.00,,,0.00,Wunderground v.1.15,2017-11-21 15:28:00,
2017-11-21 10:34:00,46.4,32.4,29.97,East,94,6.0,17.0,58,0.00,,,0.00,Wunderground v.1.15,2017-11-21 15:34:00,
2017-11-21 10:46:00,47.2,32.7,29.97,WSW,257,6.0,15.0,57,0.00,,,0.00,Wunderground v.1.15,2017-11-21 15:46:00,
2017-11-21 10:52:00,47.3,31.9,29.96,West,259,6.0,11.0,55,0.00,,,0.00,Wunderground v.1.15,2017-11-21 15:52:00,
2017-11-21 10:58:00,47.2,31.8,29.96,WSW,250,7.0,15.0,55,0.00,,,0.00,Wunderground v.1.15,2017-11-21 15:58:00,
2017-11-21 11:04:00,47.5,31.7,29.96,WNW,285,7.0,15.0,54,0.00,,,0.00,Wunderground v.1.15,2017-11-21 16:04:00,
2017-11-21 11:10:00,47.6,32.2,29.96,WNW,287,8.0,8.0,55,0.00,,,0.00,Wunderground v.1.15,2017-11-21 16:10:00,
2017-11-21 11:16:00,47.8,31.9,29.95,WSW,238,6.0,15.0,54,0.00,,,0.00,Wunderground v.1.15,2017-11-21 16:16:00,
2017-11-21 11:22:00,47.5,31.7,29.96,ENE,58,6.0,15.0,54,0.00,,,0.00,Wunderground v.1.15,2017-11-21 16:22:00,
2017-11-21 11:34:00,47.4,31.6,29.95,SSE,165,6.0,15.0,54,0.00,,,0.00,Wunderground v.1.15,2017-11-21 16:34:00,
2017-11-21 11:40:00,47.6,32.2,29.95,WSW,249,7.0,7.0,55,0.00,,,0.00,Wunderground v.1.15,2017-11-21 16:40:00,
2017-11-21 11:46:00,47.9,32.5,29.95,West,271,6.0,15.0,55,0.00,,,0.00,Wunderground v.1.15,2017-11-21 16:46:00,
2017-11-21 11:52:00,48.2,32.3,29.95,West,273,5.0,15.0,54,0.00,,,0.00,Wunderground v.1.15,2017-11-21 16:52:00,
2017-11-21 11:58:00,48.3,31.9,29.95,ENE,75,7.0,15.0,53,0.00,,,0.00,Wunderground v.1.15,2017-11-21 16:58:00,
2017-11-21 12:04:00,48.7,32.3,29.95,SSE,155,7.0,15.0,53,0.00,,,0.00,Wunderground v.1.15,2017-11-21 17:04:00,
2017-11-21 12:10:00,48.8,31.9,29.94,North,9,7.0,7.0,52,0.00,,,0.00,Wunderground v.1.15,2017-11-21 17:10:00,
2017-11-21 12:16:00,48.8,32.4,29.94,SW,230,8.0,15.0,53,0.00,,,0.00,Wunderground v.1.15,2017-11-21 17:16:00,
2017-11-21 12:22:00,49.0,32.1,29.94,NNW,343,8.0,15.0,52,0.00,,,0.00,Wunderground v.1.15,2017-11-21 17:22:00,
2017-11-21 12:28:00,49.0,32.6,29.94,West,262,8.0,15.0,53,0.00,,,0.00,Wunderground v.1.15,2017-11-21 17:28:00,
2017-11-21 12:34:00,49.3,33.3,29.94,SW,219,6.0,15.0,54,0.00,,,0.00,Wunderground v.1.15,2017-11-21 17:34:00,
2017-11-21 12:40:00,49.9,33.0,29.94,WSW,244,6.0,15.0,52,0.00,,,0.00,Wunderground v.1.15,2017-11-21 17:40:00,
2017-11-21 13:04:00,50.3,33.3,29.92,SW,221,8.0,12.0,52,0.00,,,0.00,Wunderground v.1.15,2017-11-21 18:04:00,
2017-11-21 13:10:00,50.3,32.8,29.92,NW,323,8.0,8.0,51,0.00,,,0.00,Wunderground v.1.15,2017-11-21 18:10:00,
2017-11-21 13:16:00,50.1,33.6,29.93,SSE,151,8.0,19.0,53,0.00,,,0.00,Wunderground v.1.15,2017-11-21 18:16:00,
2017-11-21 13:34:00,50.7,33.7,29.92,NW,323,7.0,8.0,52,0.00,,,0.00,Wunderground v.1.15,2017-11-21 18:34:00,
2017-11-21 13:40:00,50.9,33.9,29.92,SSW,195,8.0,11.0,52,0.00,,,0.00,Wunderground v.1.15,2017-11-21 18:40:00,
2017-11-21 13:52:00,51.8,33.7,29.92,West,264,5.0,8.0,50,0.00,,,0.00,Wunderground v.1.15,2017-11-21 18:52:00,
2017-11-21 13:58:00,51.7,33.1,29.92,West,267,7.0,10.0,49,0.00,,,0.00,Wunderground v.1.15,2017-11-21 18:58:00,
2017-11-21 14:04:00,52.1,34.5,29.92,WNW,300,6.0,18.0,51,0.00,,,0.00,Wunderground v.1.15,2017-11-21 19:04:00,
2017-11-21 14:16:00,52.4,33.3,29.92,NNW,342,6.0,18.0,48,0.00,,,0.00,Wunderground v.1.15,2017-11-21 19:16:00,
2017-11-21 14:22:00,52.5,33.9,29.92,South,186,7.0,18.0,49,0.00,,,0.00,Wunderground v.1.15,2017-11-21 19:22:00,
2017-11-21 14:28:00,52.5,33.9,29.92,West,270,7.0,18.0,49,0.00,,,0.00,Wunderground v.1.15,2017-11-21 19:28:00,
2017-11-21 14:58:00,52.7,34.6,29.92,SSW,196,5.0,18.0,50,0.00,,,0.00,Wunderground v.1.15,2017-11-21 19:58:00,
2017-11-21 15:04:00,52.7,34.1,29.92,WSW,252,5.0,18.0,49,0.00,,,0.00,Wunderground v.1.15,2017-11-21 20:04:00,
2017-11-21 15:22:00,52.9,34.2,29.92,West,281,5.0,18.0,49,0.00,,,0.00,Wunderground v.1.15,2017-11-21 20:22:00,
2017-11-21 15:28:00,52.9,34.2,29.92,SW,221,6.0,18.0,49,0.00,,,0.00,Wunderground v.1.15,2017-11-21 20:28:00,
2017-11-21 15:46:00,52.8,35.2,29.92,SW,228,6.0,18.0,51,0.00,,,0.00,Wunderground v.1.15,2017-11-21 20:46:00,
2017-11-21 15:58:00,52.1,35.0,29.93,West,270,3.0,18.0,52,0.00,,,0.00,Wunderground v.1.15,2017-11-21 20:58:00,
2017-11-21 16:04:00,51.7,34.6,29.93,SE,132,2.0,18.0,52,0.00,,,0.00,Wunderground v.1.15,2017-11-21 21:04:00,
2017-11-21 16:16:00,51.1,35.0,29.94,SW,227,3.0,18.0,54,0.00,,,0.00,Wunderground v.1.15,2017-11-21 21:16:00,
2017-11-21 16:22:00,50.9,35.3,29.94,NNW,347,3.0,18.0,55,0.00,,,0.00,Wunderground v.1.15,2017-11-21 21:22:00,
2017-11-21 16:28:00,50.7,35.1,29.95,WNW,291,2.0,18.0,55,0.00,,,0.00,Wunderground v.1.15,2017-11-21 21:28:00,
2017-11-21 16:40:00,50.3,35.2,29.95,WNW,299,2.0,18.0,56,0.00,,,0.00,Wunderground v.1.15,2017-11-21 21:40:00,
2017-11-21 16:46:00,50.2,35.1,29.95,East,94,2.0,18.0,56,0.00,,,0.00,Wunderground v.1.15,2017-11-21 21:46:00,
2017-11-21 16:52:00,50.1,35.0,29.95,NW,312,2.0,18.0,56,0.00,,,0.00,Wunderground v.1.15,2017-11-21 21:52:00,
2017-11-21 16:58:00,50.0,34.9,29.95,WNW,283,2.0,18.0,56,0.00,,,0.00,Wunderground v.1.15,2017-11-21 21:58:00,
2017-11-21 17:04:00,49.9,35.3,29.95,North,8,2.0,18.0,57,0.00,,,0.00,Wunderground v.1.15,2017-11-21 22:04:00,
2017-11-21 17:16:00,49.1,34.9,29.95,NNW,330,1.0,18.0,58,0.00,,,0.00,Wunderground v.1.15,2017-11-21 22:16:00,
2017-11-21 17:22:00,48.8,34.7,29.95,NW,325,1.0,18.0,58,0.00,,,0.00,Wunderground v.1.15,2017-11-21 22:22:00,
2017-11-21 17:28:00,48.4,34.7,29.95,SE,140,0.0,18.0,59,0.00,,,0.00,Wunderground v.1.15,2017-11-21 22:28:00,
2017-11-21 17:34:00,47.8,34.6,29.95,South,176,0.0,18.0,60,0.00,,,0.00,Wunderground v.1.15,2017-11-21 22:34:00,
2017-11-21 17:40:00,47.4,34.6,29.95,NW,316,1.0,18.0,61,0.00,,,0.00,Wunderground v.1.15,2017-11-21 22:40:00,
2017-11-21 17:46:00,47.3,34.1,29.95,NNE,29,1.0,18.0,60,0.00,,,0.00,Wunderground v.1.15,2017-11-21 22:46:00,
2017-11-21 17:58:00,47.3,34.5,29.95,WNW,300,1.0,18.0,61,0.00,,,0.00,Wunderground v.1.15,2017-11-21 22:58:00,
2017-11-21 18:04:00,47.5,34.3,29.95,NNW,333,1.0,18.0,60,0.00,,,0.00,Wunderground v.1.15,2017-11-21 23:04:00,
2017-11-21 18:16:00,47.3,34.5,29.95,WNW,294,1.0,18.0,61,0.00,,,0.00,Wunderground v.1.15,2017-11-21 23:16:00,
2017-11-21 18:22:00,47.0,34.2,29.95,NW,320,1.0,18.0,61,0.00,,,0.00,Wunderground v.1.15,2017-11-21 23:22:00,
2017-11-21 18:28:00,47.0,34.6,29.95,West,281,1.0,18.0,62,0.00,,,0.00,Wunderground v.1.15,2017-11-21 23:28:00,
2017-11-21 18:40:00,46.7,34.4,29.95,WNW,297,0.0,18.0,62,0.00,,,0.00,Wunderground v.1.15,2017-11-21 23:40:00,
2017-11-21 18:46:00,46.7,34.8,29.95,NW,307,1.0,18.0,63,0.00,,,0.00,Wunderground v.1.15,2017-11-21 23:46:00,
2017-11-21 18:58:00,46.8,34.9,29.96,WNW,295,1.0,18.0,63,0.00,,,0.00,Wunderground v.1.15,2017-11-21 23:58:00,
2017-11-21 19:04:00,46.7,34.8,29.95,NW,316,1.0,2.0,63,0.00,,,0.00,Wunderground v.1.15,2017-11-22 00:04:00,
2017-11-21 19:16:00,46.2,35.1,29.96,North,10,0.0,2.0,65,0.00,,,0.00,Wunderground v.1.15,2017-11-22 00:16:00,
2017-11-21 19:34:00,46.2,35.5,29.97,NW,313,1.0,1.0,66,0.00,,,0.00,Wunderground v.1.15,2017-11-22 00:34:00,
2017-11-21 19:40:00,46.0,35.3,29.97,NNW,328,1.0,1.0,66,0.00,,,0.00,Wunderground v.1.15,2017-11-22 00:40:00,
2017-11-21 19:46:00,46.2,35.8,29.97,NNW,330,1.0,3.0,67,0.00,,,0.00,Wunderground v.1.15,2017-11-22 00:46:00,
2017-11-21 19:52:00,46.6,35.8,29.97,WNW,284,2.0,3.0,66,0.00,,,0.00,Wunderground v.1.15,2017-11-22 00:52:00,
2017-11-21 20:04:00,47.2,36.0,29.96,West,273,2.0,4.0,65,0.00,,,0.00,Wunderground v.1.15,2017-11-22 01:04:00,
2017-11-21 20:16:00,47.2,36.0,29.97,WNW,290,2.0,4.0,65,0.00,,,0.00,Wunderground v.1.15,2017-11-22 01:16:00,
2017-11-21 20:28:00,47.0,36.2,29.98,NNW,335,3.0,4.0,66,0.00,,,0.00,Wunderground v.1.15,2017-11-22 01:28:00,
2017-11-21 20:34:00,47.3,36.5,29.98,NNE,25,4.0,8.0,66,0.00,,,0.00,Wunderground v.1.15,2017-11-22 01:34:00,
2017-11-21 20:40:00,47.3,36.5,29.98,NW,325,5.0,8.0,66,0.00,,,0.00,Wunderground v.1.15,2017-11-22 01:40:00,
2017-11-21 20:52:00,47.3,37.3,29.98,NW,321,8.0,8.0,68,0.00,,,0.00,Wunderground v.1.15,2017-11-22 01:52:00,
2017-11-21 20:58:00,47.0,37.4,29.99,NW,310,7.0,8.0,69,0.00,,,0.00,Wunderground v.1.15,2017-11-22 01:58:00,
2017-11-21 21:04:00,46.7,37.4,29.99,NNW,328,6.0,6.0,70,0.00,,,0.00,Wunderground v.1.15,2017-11-22 02:04:00,
2017-11-21 21:10:00,46.6,37.7,29.99,NW,317,5.0,5.0,71,0.00,,,0.00,Wunderground v.1.15,2017-11-22 02:10:00,
2017-11-21 21:16:00,46.4,37.9,29.99,WNW,292,5.0,8.0,72,0.00,,,0.00,Wunderground v.1.15,2017-11-22 02:16:00,
2017-11-21 21:22:00,46.3,37.8,29.99,NW,319,4.0,4.0,72,0.00,,,0.00,Wunderground v.1.15,2017-11-22 02:22:00,
2017-11-21 21:28:00,46.1,37.9,30.00,NW,313,4.0,4.0,73,0.00,,,0.00,Wunderground v.1.15,2017-11-22 02:28:00,
2017-11-21 21:34:00,46.0,37.8,30.00,NW,324,4.0,8.0,73,0.00,,,0.00,Wunderground v.1.15,2017-11-22 02:34:00,
2017-11-21 21:40:00,45.9,38.1,30.00,NW,323,6.0,6.0,74,0.00,,,0.00,Wunderground v.1.15,2017-11-22 02:40:00,
2017-11-21 21:58:00,45.3,38.2,30.00,NNW,345,6.0,9.0,76,0.00,,,0.00,Wunderground v.1.15,2017-11-22 02:58:00,
2017-11-21 22:04:00,45.0,38.2,30.01,NW,323,6.0,8.0,77,0.00,,,0.00,Wunderground v.1.15,2017-11-22 03:04:00,
2017-11-21 22:10:00,44.6,38.2,30.01,North,354,6.0,6.0,78,0.00,,,0.00,Wunderground v.1.15,2017-11-22 03:10:00,
2017-11-21 22:16:00,44.2,38.1,30.01,NNW,339,7.0,7.0,79,0.00,,,0.00,Wunderground v.1.15,2017-11-22 03:16:00,
2017-11-21 22:22:00,43.9,38.1,30.01,NW,319,7.0,7.0,80,0.00,,,0.00,Wunderground v.1.15,2017-11-22 03:22:00,
2017-11-21 22:28:00,43.6,37.8,30.02,NW,319,7.0,10.0,80,0.00,,,0.00,Wunderground v.1.15,2017-11-22 03:28:00,
2017-11-21 22:34:00,43.5,38.1,30.02,North,9,6.0,7.0,81,0.00,,,0.00,Wunderground v.1.15,2017-11-22 03:34:00,
2017-11-21 22:46:00,43.0,37.9,30.02,NNW,347,7.0,8.0,82,0.00,,,0.00,Wunderground v.1.15,2017-11-22 03:46:00,
2017-11-21 22:52:00,42.6,38.1,30.02,North,349,6.0,8.0,84,0.00,,,0.00,Wunderground v.1.15,2017-11-22 03:52:00,
2017-11-21 22:58:00,41.9,38.0,30.03,NNE,15,8.0,12.0,86,0.00,,,0.00,Wunderground v.1.15,2017-11-22 03:58:00,
2017-11-21 23:04:00,40.9,37.6,30.03,North,350,10.0,13.0,88,0.00,,,0.00,Wunderground v.1.15,2017-11-22 04:04:00,
2017-11-21 23:10:00,39.9,36.9,30.04,North,1,10.0,10.0,89,0.00,,,0.00,Wunderground v.1.15,2017-11-22 04:10:00,
2017-11-21 23:16:00,38.6,35.6,30.04,North,354,10.0,14.0,89,0.00,,,0.00,Wunderground v.1.15,2017-11-22 04:16:00,
2017-11-21 23:28:00,36.7,34.3,30.04,North,9,7.0,12.0,91,0.00,,,0.00,Wunderground v.1.15,2017-11-22 04:28:00,